sensor_id;sensor_type;location;lat;lon;timestamp;P1;durP1;ratioP1;P2;durP2;ratioP2
29466;SDS011;60968;37.490;-122.288;2023-03-05T00:01:58;11.00;;;1.60;;
29466;SDS011;60968;37.490;-122.288;2023-03-05T00:04:59;13.83;;;1.60;;
29466;SDS011;60968;37.490;-122.288;2023-03-05T00:08:01;11.23;;;1.83;;
29466;SDS011;60968;37.490;-122.288;2023-03-05T00:11:03;8.40;;;1.80;;
29466;SDS011;60968;37.490;-122.288;2023-03-05T00:14:09;9.40;;;1.73;;
29466;SDS011;60968;37.490;-122.288;2023-03-05T00:17:10;18.20;;;2.33;;
29466;SDS011;60968;37.490;-122.288;2023-03-05T00:20:11;9.13;;;2.07;;
29466;SDS011;60968;37.490;-122.288;2023-03-05T00:23:12;13.97;;;1.80;;
29466;SDS011;60968;37.490;-122.288;2023-03-05T00:26:13;8.57;;;1.47;;
29466;SDS011;60968;37.490;-122.288;2023-03-05T00:29:15;10.27;;;1.47;;
29466;SDS011;60968;37.490;-122.288;2023-03-05T00:32:19;13.53;;;2.37;;
29466;SDS011;60968;37.490;-122.288;2023-03-05T00:35:21;9.63;;;1.60;;
29466;SDS011;60968;37.490;-122.288;2023-03-05T00:38:22;14.00;;;1.20;;
29466;SDS011;60968;37.490;-122.288;2023-03-05T00:41:23;6.67;;;2.00;;
29466;SDS011;60968;37.490;-122.288;2023-03-05T00:44:24;11.80;;;1.50;;
29466;SDS011;60968;37.490;-122.288;2023-03-05T00:47:25;9.87;;;1.37;;
29466;SDS011;60968;37.490;-122.288;2023-03-05T00:50:26;6.90;;;1.60;;
29466;SDS011;60968;37.490;-122.288;2023-03-05T00:53:27;12.27;;;1.60;;
29466;SDS011;60968;37.490;-122.288;2023-03-05T00:56:28;9.00;;;2.10;;
29466;SDS011;60968;37.490;-122.288;2023-03-05T00:59:32;9.37;;;1.60;;
29466;SDS011;60968;37.490;-122.288;2023-03-05T01:02:33;13.00;;;2.00;;
29466;SDS011;60968;37.490;-122.288;2023-03-05T01:05:34;9.33;;;1.70;;
29466;SDS011;60968;37.490;-122.288;2023-03-05T01:08:35;8.63;;;1.70;;
29466;SDS011;60968;37.490;-122.288;2023-03-05T01:11:37;15.50;;;1.87;;
29466;SDS011;60968;37.490;-122.288;2023-03-05T01:14:37;13.50;;;2.20;;
29466;SDS011;60968;37.490;-122.288;2023-03-05T01:17:38;11.53;;;1.80;;
29466;SDS011;60968;37.490;-122.288;2023-03-05T01:20:39;16.03;;;2.37;;
29466;SDS011;60968;37.490;-122.288;2023-03-05T01:23:40;13.67;;;2.07;;
29466;SDS011;60968;37.490;-122.288;2023-03-05T01:26:41;14.67;;;1.87;;
29466;SDS011;60968;37.490;-122.288;2023-03-05T01:29:42;16.50;;;2.00;;
29466;SDS011;60968;37.490;-122.288;2023-03-05T01:32:49;10.70;;;1.90;;
29466;SDS011;60968;37.490;-122.288;2023-03-05T01:35:50;12.17;;;2.57;;
29466;SDS011;60968;37.490;-122.288;2023-03-05T01:38:51;52.10;;;8.33;;
29466;SDS011;60968;37.490;-122.288;2023-03-05T01:41:52;30.37;;;5.93;;
29466;SDS011;60968;37.490;-122.288;2023-03-05T01:45:08;36.90;;;4.77;;
29466;SDS011;60968;37.490;-122.288;2023-03-05T01:48:11;9.07;;;2.07;;
29466;SDS011;60968;37.490;-122.288;2023-03-05T01:51:12;12.37;;;2.60;;
29466;SDS011;60968;37.490;-122.288;2023-03-05T01:54:14;9.30;;;2.17;;
29466;SDS011;60968;37.490;-122.288;2023-03-05T01:57:31;18.23;;;2.13;;
29466;SDS011;60968;37.490;-122.288;2023-03-05T02:00:39;19.87;;;2.23;;
29466;SDS011;60968;37.490;-122.288;2023-03-05T02:03:43;7.60;;;1.93;;
29466;SDS011;60968;37.490;-122.288;2023-03-05T02:06:45;7.67;;;1.50;;
29466;SDS011;60968;37.490;-122.288;2023-03-05T02:09:47;13.23;;;2.70;;
29466;SDS011;60968;37.490;-122.288;2023-03-05T02:12:48;5.63;;;1.57;;
29466;SDS011;60968;37.490;-122.288;2023-03-05T02:15:51;16.57;;;2.30;;
29466;SDS011;60968;37.490;-122.288;2023-03-05T02:18:53;16.43;;;3.30;;
29466;SDS011;60968;37.490;-122.288;2023-03-05T02:21:54;16.97;;;2.83;;
29466;SDS011;60968;37.490;-122.288;2023-03-05T02:24:55;14.00;;;2.00;;
29466;SDS011;60968;37.490;-122.288;2023-03-05T02:31:16;11.43;;;2.03;;
29466;SDS011;60968;37.490;-122.288;2023-03-05T02:34:21;15.07;;;1.83;;
29466;SDS011;60968;37.490;-122.288;2023-03-05T02:37:22;17.73;;;2.73;;
29466;SDS011;60968;37.490;-122.288;2023-03-05T02:40:23;7.13;;;1.93;;
29466;SDS011;60968;37.490;-122.288;2023-03-05T02:43:24;11.53;;;2.43;;
29466;SDS011;60968;37.490;-122.288;2023-03-05T02:46:25;10.03;;;1.83;;
29466;SDS011;60968;37.490;-122.288;2023-03-05T02:49:26;20.93;;;3.03;;
29466;SDS011;60968;37.490;-122.288;2023-03-05T02:52:27;13.87;;;2.00;;
29466;SDS011;60968;37.490;-122.288;2023-03-05T02:55:30;16.47;;;2.53;;
29466;SDS011;60968;37.490;-122.288;2023-03-05T02:58:31;14.10;;;2.90;;
29466;SDS011;60968;37.490;-122.288;2023-03-05T03:01:32;16.03;;;2.80;;
29466;SDS011;60968;37.490;-122.288;2023-03-05T03:04:33;17.33;;;2.43;;
29466;SDS011;60968;37.490;-122.288;2023-03-05T03:07:33;12.67;;;1.93;;
29466;SDS011;60968;37.490;-122.288;2023-03-05T03:10:35;21.90;;;2.70;;
29466;SDS011;60968;37.490;-122.288;2023-03-05T03:13:36;7.73;;;1.57;;
29466;SDS011;60968;37.490;-122.288;2023-03-05T03:16:39;13.87;;;2.20;;
29466;SDS011;60968;37.490;-122.288;2023-03-05T03:19:40;18.93;;;2.43;;
29466;SDS011;60968;37.490;-122.288;2023-03-05T03:22:42;12.03;;;1.67;;
29466;SDS011;60968;37.490;-122.288;2023-03-05T03:25:44;11.73;;;2.13;;
29466;SDS011;60968;37.490;-122.288;2023-03-05T03:28:45;12.30;;;2.30;;
29466;SDS011;60968;37.490;-122.288;2023-03-05T03:31:46;10.90;;;2.10;;
29466;SDS011;60968;37.490;-122.288;2023-03-05T03:34:47;12.70;;;1.77;;
29466;SDS011;60968;37.490;-122.288;2023-03-05T03:37:48;9.90;;;1.83;;
29466;SDS011;60968;37.490;-122.288;2023-03-05T03:40:49;14.50;;;2.50;;
29466;SDS011;60968;37.490;-122.288;2023-03-05T03:43:49;19.03;;;2.50;;
29466;SDS011;60968;37.490;-122.288;2023-03-05T03:46:50;16.03;;;2.27;;
29466;SDS011;60968;37.490;-122.288;2023-03-05T03:49:54;13.90;;;2.10;;
29466;SDS011;60968;37.490;-122.288;2023-03-05T03:52:55;9.77;;;2.30;;
29466;SDS011;60968;37.490;-122.288;2023-03-05T03:55:56;21.23;;;3.07;;
29466;SDS011;60968;37.490;-122.288;2023-03-05T03:58:58;13.07;;;1.90;;
29466;SDS011;60968;37.490;-122.288;2023-03-05T04:02:00;16.07;;;2.53;;
29466;SDS011;60968;37.490;-122.288;2023-03-05T04:05:01;15.23;;;2.93;;
29466;SDS011;60968;37.490;-122.288;2023-03-05T04:08:02;18.23;;;2.27;;
29466;SDS011;60968;37.490;-122.288;2023-03-05T04:11:03;32.43;;;3.63;;
29466;SDS011;60968;37.490;-122.288;2023-03-05T04:14:04;24.43;;;2.50;;
29466;SDS011;60968;37.490;-122.288;2023-03-05T04:17:05;13.13;;;1.90;;
29466;SDS011;60968;37.490;-122.288;2023-03-05T04:20:06;19.53;;;2.43;;
29466;SDS011;60968;37.490;-122.288;2023-03-05T04:23:10;20.40;;;2.40;;
29466;SDS011;60968;37.490;-122.288;2023-03-05T04:26:12;14.73;;;2.07;;
29466;SDS011;60968;37.490;-122.288;2023-03-05T04:29:13;20.83;;;2.53;;
29466;SDS011;60968;37.490;-122.288;2023-03-05T04:32:14;13.03;;;2.40;;
29466;SDS011;60968;37.490;-122.288;2023-03-05T04:35:15;31.00;;;3.00;;
29466;SDS011;60968;37.490;-122.288;2023-03-05T04:38:17;21.27;;;2.73;;
29466;SDS011;60968;37.490;-122.288;2023-03-05T04:41:18;14.17;;;3.37;;
29466;SDS011;60968;37.490;-122.288;2023-03-05T04:44:19;25.80;;;2.90;;
29466;SDS011;60968;37.490;-122.288;2023-03-05T04:47:20;17.90;;;2.60;;
29466;SDS011;60968;37.490;-122.288;2023-03-05T04:50:20;16.33;;;4.40;;
29466;SDS011;60968;37.490;-122.288;2023-03-05T04:53:21;18.83;;;2.63;;
29466;SDS011;60968;37.490;-122.288;2023-03-05T04:56:22;18.77;;;3.00;;
29466;SDS011;60968;37.490;-122.288;2023-03-05T04:59:23;17.27;;;3.50;;
29466;SDS011;60968;37.490;-122.288;2023-03-05T05:02:24;16.03;;;2.73;;
29466;SDS011;60968;37.490;-122.288;2023-03-05T05:05:26;10.00;;;2.87;;
29466;SDS011;60968;37.490;-122.288;2023-03-05T05:08:27;16.97;;;2.53;;
29466;SDS011;60968;37.490;-122.288;2023-03-05T05:11:29;14.50;;;2.80;;
29466;SDS011;60968;37.490;-122.288;2023-03-05T05:14:29;17.93;;;2.43;;
29466;SDS011;60968;37.490;-122.288;2023-03-05T05:17:30;14.93;;;2.43;;
29466;SDS011;60968;37.490;-122.288;2023-03-05T05:20:31;18.60;;;3.07;;
29466;SDS011;60968;37.490;-122.288;2023-03-05T05:23:32;23.03;;;3.77;;
29466;SDS011;60968;37.490;-122.288;2023-03-05T05:26:34;36.20;;;10.53;;
29466;SDS011;60968;37.490;-122.288;2023-03-05T05:29:35;19.23;;;4.00;;
29466;SDS011;60968;37.490;-122.288;2023-03-05T05:32:37;22.70;;;3.60;;
29466;SDS011;60968;37.490;-122.288;2023-03-05T05:35:38;11.90;;;3.07;;
29466;SDS011;60968;37.490;-122.288;2023-03-05T05:38:39;18.73;;;2.50;;
29466;SDS011;60968;37.490;-122.288;2023-03-05T05:41:41;12.67;;;2.10;;
29466;SDS011;60968;37.490;-122.288;2023-03-05T05:44:42;19.20;;;2.83;;
29466;SDS011;60968;37.490;-122.288;2023-03-05T05:47:44;11.63;;;2.40;;
29466;SDS011;60968;37.490;-122.288;2023-03-05T05:50:46;18.67;;;2.80;;
29466;SDS011;60968;37.490;-122.288;2023-03-05T05:53:47;15.20;;;2.57;;
29466;SDS011;60968;37.490;-122.288;2023-03-05T05:56:48;19.07;;;2.83;;
29466;SDS011;60968;37.490;-122.288;2023-03-05T05:59:49;32.17;;;2.93;;
29466;SDS011;60968;37.490;-122.288;2023-03-05T06:02:50;24.07;;;3.03;;
29466;SDS011;60968;37.490;-122.288;2023-03-05T06:05:51;21.20;;;2.77;;
29466;SDS011;60968;37.490;-122.288;2023-03-05T06:08:52;19.07;;;3.53;;
29466;SDS011;60968;37.490;-122.288;2023-03-05T06:11:54;18.23;;;2.80;;
29466;SDS011;60968;37.490;-122.288;2023-03-05T06:14:55;13.27;;;2.37;;
29466;SDS011;60968;37.490;-122.288;2023-03-05T06:17:57;14.67;;;2.40;;
29466;SDS011;60968;37.490;-122.288;2023-03-05T06:21:00;13.87;;;2.63;;
29466;SDS011;60968;37.490;-122.288;2023-03-05T06:24:03;17.30;;;2.20;;
29466;SDS011;60968;37.490;-122.288;2023-03-05T06:27:04;26.87;;;3.70;;
29466;SDS011;60968;37.490;-122.288;2023-03-05T06:30:05;18.57;;;3.40;;
29466;SDS011;60968;37.490;-122.288;2023-03-05T06:33:07;12.13;;;2.37;;
29466;SDS011;60968;37.490;-122.288;2023-03-05T06:36:09;15.67;;;2.30;;
29466;SDS011;60968;37.490;-122.288;2023-03-05T06:39:11;23.43;;;3.50;;
29466;SDS011;60968;37.490;-122.288;2023-03-05T06:42:13;12.97;;;2.70;;
29466;SDS011;60968;37.490;-122.288;2023-03-05T06:45:14;21.47;;;2.73;;
29466;SDS011;60968;37.490;-122.288;2023-03-05T06:48:15;15.23;;;2.53;;
29466;SDS011;60968;37.490;-122.288;2023-03-05T06:54:37;15.60;;;2.40;;
29466;SDS011;60968;37.490;-122.288;2023-03-05T06:57:38;12.73;;;2.37;;
29466;SDS011;60968;37.490;-122.288;2023-03-05T07:00:40;22.47;;;2.73;;
29466;SDS011;60968;37.490;-122.288;2023-03-05T07:03:42;20.87;;;2.90;;
29466;SDS011;60968;37.490;-122.288;2023-03-05T07:06:44;22.67;;;2.87;;
29466;SDS011;60968;37.490;-122.288;2023-03-05T07:09:45;24.67;;;3.00;;
29466;SDS011;60968;37.490;-122.288;2023-03-05T07:12:46;15.73;;;2.60;;
29466;SDS011;60968;37.490;-122.288;2023-03-05T07:15:47;17.43;;;2.63;;
29466;SDS011;60968;37.490;-122.288;2023-03-05T07:18:47;14.70;;;2.87;;
29466;SDS011;60968;37.490;-122.288;2023-03-05T07:21:49;15.63;;;2.57;;
29466;SDS011;60968;37.490;-122.288;2023-03-05T07:24:50;17.97;;;2.93;;
29466;SDS011;60968;37.490;-122.288;2023-03-05T07:27:50;21.60;;;3.03;;
29466;SDS011;60968;37.490;-122.288;2023-03-05T07:30:58;19.07;;;2.93;;
29466;SDS011;60968;37.490;-122.288;2023-03-05T07:34:01;17.47;;;2.63;;
29466;SDS011;60968;37.490;-122.288;2023-03-05T07:37:03;18.40;;;2.60;;
29466;SDS011;60968;37.490;-122.288;2023-03-05T07:40:07;17.77;;;2.20;;
29466;SDS011;60968;37.490;-122.288;2023-03-05T07:43:08;20.83;;;3.23;;
29466;SDS011;60968;37.490;-122.288;2023-03-05T07:46:10;17.63;;;2.77;;
29466;SDS011;60968;37.490;-122.288;2023-03-05T07:49:13;18.50;;;2.70;;
29466;SDS011;60968;37.490;-122.288;2023-03-05T07:52:15;17.50;;;2.80;;
29466;SDS011;60968;37.490;-122.288;2023-03-05T07:55:17;14.73;;;2.77;;
29466;SDS011;60968;37.490;-122.288;2023-03-05T07:58:18;10.80;;;2.03;;
29466;SDS011;60968;37.490;-122.288;2023-03-05T08:01:20;14.40;;;2.63;;
29466;SDS011;60968;37.490;-122.288;2023-03-05T08:04:21;16.90;;;2.40;;
29466;SDS011;60968;37.490;-122.288;2023-03-05T08:07:22;10.83;;;2.20;;
29466;SDS011;60968;37.490;-122.288;2023-03-05T08:10:23;19.17;;;2.50;;
29466;SDS011;60968;37.490;-122.288;2023-03-05T08:13:24;23.17;;;3.33;;
29466;SDS011;60968;37.490;-122.288;2023-03-05T08:16:27;30.27;;;3.73;;
29466;SDS011;60968;37.490;-122.288;2023-03-05T08:19:27;14.17;;;2.70;;
29466;SDS011;60968;37.490;-122.288;2023-03-05T08:22:28;18.13;;;3.00;;
29466;SDS011;60968;37.490;-122.288;2023-03-05T08:25:29;14.93;;;3.83;;
29466;SDS011;60968;37.490;-122.288;2023-03-05T08:28:30;19.67;;;2.77;;
29466;SDS011;60968;37.490;-122.288;2023-03-05T08:31:31;18.07;;;2.83;;
29466;SDS011;60968;37.490;-122.288;2023-03-05T08:34:33;21.67;;;2.63;;
29466;SDS011;60968;37.490;-122.288;2023-03-05T08:37:34;19.10;;;3.20;;
29466;SDS011;60968;37.490;-122.288;2023-03-05T08:40:36;18.20;;;2.80;;
29466;SDS011;60968;37.490;-122.288;2023-03-05T08:43:39;18.93;;;3.17;;
29466;SDS011;60968;37.490;-122.288;2023-03-05T08:46:40;18.37;;;2.83;;
29466;SDS011;60968;37.490;-122.288;2023-03-05T08:49:40;19.57;;;3.67;;
29466;SDS011;60968;37.490;-122.288;2023-03-05T08:52:41;15.90;;;3.63;;
29466;SDS011;60968;37.490;-122.288;2023-03-05T08:55:51;20.57;;;2.70;;
29466;SDS011;60968;37.490;-122.288;2023-03-05T08:58:53;22.53;;;4.17;;
29466;SDS011;60968;37.490;-122.288;2023-03-05T09:01:54;15.87;;;2.60;;
29466;SDS011;60968;37.490;-122.288;2023-03-05T09:04:59;21.20;;;2.97;;
29466;SDS011;60968;37.490;-122.288;2023-03-05T09:08:00;19.07;;;2.87;;
29466;SDS011;60968;37.490;-122.288;2023-03-05T09:11:01;29.53;;;2.93;;
29466;SDS011;60968;37.490;-122.288;2023-03-05T09:14:04;22.03;;;3.20;;
29466;SDS011;60968;37.490;-122.288;2023-03-05T09:17:06;21.73;;;3.27;;
29466;SDS011;60968;37.490;-122.288;2023-03-05T09:20:09;23.20;;;3.03;;
29466;SDS011;60968;37.490;-122.288;2023-03-05T09:23:11;22.93;;;3.27;;
29466;SDS011;60968;37.490;-122.288;2023-03-05T09:26:13;15.77;;;2.47;;
29466;SDS011;60968;37.490;-122.288;2023-03-05T09:29:15;12.83;;;2.60;;
29466;SDS011;60968;37.490;-122.288;2023-03-05T09:32:15;10.90;;;1.43;;
29466;SDS011;60968;37.490;-122.288;2023-03-05T09:35:16;19.17;;;2.27;;
29466;SDS011;60968;37.490;-122.288;2023-03-05T09:38:17;16.10;;;2.93;;
29466;SDS011;60968;37.490;-122.288;2023-03-05T09:41:25;25.37;;;2.70;;
29466;SDS011;60968;37.490;-122.288;2023-03-05T09:48:37;24.87;;;3.67;;
29466;SDS011;60968;37.490;-122.288;2023-03-05T09:51:43;25.23;;;3.53;;
29466;SDS011;60968;37.490;-122.288;2023-03-05T09:54:46;14.57;;;2.33;;
29466;SDS011;60968;37.490;-122.288;2023-03-05T09:57:52;4.00;;;0.90;;
29466;SDS011;60968;37.490;-122.288;2023-03-05T10:00:59;4.03;;;0.50;;
29466;SDS011;60968;37.490;-122.288;2023-03-05T10:07:40;3.13;;;0.27;;
29466;SDS011;60968;37.490;-122.288;2023-03-05T10:10:44;0.97;;;0.27;;
29466;SDS011;60968;37.490;-122.288;2023-03-05T10:13:48;0.50;;;0.10;;
29466;SDS011;60968;37.490;-122.288;2023-03-05T10:16:56;3.00;;;0.30;;
29466;SDS011;60968;37.490;-122.288;2023-03-05T10:23:24;8.13;;;0.43;;
29466;SDS011;60968;37.490;-122.288;2023-03-05T10:26:48;1.93;;;0.50;;
29466;SDS011;60968;37.490;-122.288;2023-03-05T10:30:02;6.23;;;0.97;;
29466;SDS011;60968;37.490;-122.288;2023-03-05T10:43:39;3.70;;;0.77;;
29466;SDS011;60968;37.490;-122.288;2023-03-05T10:46:49;4.07;;;0.50;;
29466;SDS011;60968;37.490;-122.288;2023-03-05T10:49:52;6.43;;;0.50;;
29466;SDS011;60968;37.490;-122.288;2023-03-05T10:53:17;7.43;;;0.87;;
29466;SDS011;60968;37.490;-122.288;2023-03-05T10:56:33;8.17;;;1.13;;
29466;SDS011;60968;37.490;-122.288;2023-03-05T10:59:34;5.27;;;0.87;;
29466;SDS011;60968;37.490;-122.288;2023-03-05T11:02:41;11.37;;;1.10;;
29466;SDS011;60968;37.490;-122.288;2023-03-05T11:06:02;7.60;;;1.57;;
29466;SDS011;60968;37.490;-122.288;2023-03-05T11:09:17;6.10;;;0.73;;
29466;SDS011;60968;37.490;-122.288;2023-03-05T11:12:25;10.70;;;1.40;;
29466;SDS011;60968;37.490;-122.288;2023-03-05T11:15:27;13.90;;;1.40;;
29466;SDS011;60968;37.490;-122.288;2023-03-05T11:18:30;15.50;;;1.50;;
29466;SDS011;60968;37.490;-122.288;2023-03-05T11:21:32;6.20;;;1.30;;
29466;SDS011;60968;37.490;-122.288;2023-03-05T11:24:32;16.90;;;1.77;;
29466;SDS011;60968;37.490;-122.288;2023-03-05T11:28:16;11.50;;;1.37;;
29466;SDS011;60968;37.490;-122.288;2023-03-05T11:31:44;12.43;;;1.57;;
29466;SDS011;60968;37.490;-122.288;2023-03-05T11:34:28;7.33;;;1.07;;
29466;SDS011;60968;37.490;-122.288;2023-03-05T11:37:30;12.57;;;1.57;;
29466;SDS011;60968;37.490;-122.288;2023-03-05T11:40:32;12.33;;;1.50;;
29466;SDS011;60968;37.490;-122.288;2023-03-05T11:43:34;10.63;;;1.83;;
29466;SDS011;60968;37.490;-122.288;2023-03-05T11:46:57;9.23;;;1.80;;
29466;SDS011;60968;37.490;-122.288;2023-03-05T11:50:17;8.93;;;1.10;;
29466;SDS011;60968;37.490;-122.288;2023-03-05T11:53:37;5.47;;;0.83;;
29466;SDS011;60968;37.490;-122.288;2023-03-05T11:56:40;7.60;;;1.07;;
29466;SDS011;60968;37.490;-122.288;2023-03-05T11:59:42;11.27;;;1.27;;
29466;SDS011;60968;37.490;-122.288;2023-03-05T12:02:45;9.53;;;1.60;;
29466;SDS011;60968;37.490;-122.288;2023-03-05T12:05:53;12.87;;;1.63;;
29466;SDS011;60968;37.490;-122.288;2023-03-05T12:08:59;11.23;;;1.40;;
29466;SDS011;60968;37.490;-122.288;2023-03-05T12:12:28;12.47;;;1.20;;
29466;SDS011;60968;37.490;-122.288;2023-03-05T12:15:45;10.90;;;1.13;;
29466;SDS011;60968;37.490;-122.288;2023-03-05T12:22:35;7.77;;;1.40;;
29466;SDS011;60968;37.490;-122.288;2023-03-05T12:25:48;12.27;;;1.67;;
29466;SDS011;60968;37.490;-122.288;2023-03-05T12:28:54;6.43;;;1.27;;
29466;SDS011;60968;37.490;-122.288;2023-03-05T12:31:56;8.77;;;1.30;;
29466;SDS011;60968;37.490;-122.288;2023-03-05T12:38:31;9.80;;;1.30;;
29466;SDS011;60968;37.490;-122.288;2023-03-05T12:41:34;12.13;;;1.33;;
29466;SDS011;60968;37.490;-122.288;2023-03-05T12:44:35;10.20;;;1.27;;
29466;SDS011;60968;37.490;-122.288;2023-03-05T12:53:37;9.77;;;1.27;;
29466;SDS011;60968;37.490;-122.288;2023-03-05T12:56:38;5.67;;;0.80;;
29466;SDS011;60968;37.490;-122.288;2023-03-05T12:59:58;6.93;;;1.47;;
29466;SDS011;60968;37.490;-122.288;2023-03-05T13:03:01;11.03;;;1.40;;
29466;SDS011;60968;37.490;-122.288;2023-03-05T13:06:19;15.13;;;1.90;;
29466;SDS011;60968;37.490;-122.288;2023-03-05T13:09:32;8.83;;;1.50;;
29466;SDS011;60968;37.490;-122.288;2023-03-05T13:12:33;9.10;;;2.27;;
29466;SDS011;60968;37.490;-122.288;2023-03-05T13:15:36;14.73;;;2.10;;
29466;SDS011;60968;37.490;-122.288;2023-03-05T13:18:40;11.87;;;1.60;;
29466;SDS011;60968;37.490;-122.288;2023-03-05T13:21:45;9.20;;;1.87;;
29466;SDS011;60968;37.490;-122.288;2023-03-05T13:25:11;8.13;;;1.60;;
29466;SDS011;60968;37.490;-122.288;2023-03-05T13:28:15;12.50;;;1.53;;
29466;SDS011;60968;37.490;-122.288;2023-03-05T13:31:17;23.93;;;3.00;;
29466;SDS011;60968;37.490;-122.288;2023-03-05T13:34:23;17.63;;;2.10;;
29466;SDS011;60968;37.490;-122.288;2023-03-05T13:37:27;16.00;;;1.70;;
29466;SDS011;60968;37.490;-122.288;2023-03-05T13:40:32;13.47;;;2.10;;
29466;SDS011;60968;37.490;-122.288;2023-03-05T13:43:40;16.67;;;1.67;;
29466;SDS011;60968;37.490;-122.288;2023-03-05T13:46:45;11.23;;;1.70;;
29466;SDS011;60968;37.490;-122.288;2023-03-05T13:49:46;16.27;;;2.23;;
29466;SDS011;60968;37.490;-122.288;2023-03-05T13:53:21;19.23;;;2.20;;
29466;SDS011;60968;37.490;-122.288;2023-03-05T13:56:24;18.17;;;2.30;;
29466;SDS011;60968;37.490;-122.288;2023-03-05T13:59:26;21.53;;;2.53;;
29466;SDS011;60968;37.490;-122.288;2023-03-05T14:02:29;17.10;;;2.30;;
29466;SDS011;60968;37.490;-122.288;2023-03-05T14:05:30;12.37;;;1.67;;
29466;SDS011;60968;37.490;-122.288;2023-03-05T14:08:32;18.07;;;2.70;;
29466;SDS011;60968;37.490;-122.288;2023-03-05T14:11:33;17.50;;;2.37;;
29466;SDS011;60968;37.490;-122.288;2023-03-05T14:14:35;20.77;;;2.70;;
29466;SDS011;60968;37.490;-122.288;2023-03-05T14:17:39;17.67;;;2.57;;
29466;SDS011;60968;37.490;-122.288;2023-03-05T14:24:10;24.87;;;3.33;;
29466;SDS011;60968;37.490;-122.288;2023-03-05T14:27:17;21.03;;;3.30;;
29466;SDS011;60968;37.490;-122.288;2023-03-05T14:30:21;41.53;;;4.67;;
29466;SDS011;60968;37.490;-122.288;2023-03-05T14:33:25;29.20;;;3.27;;
29466;SDS011;60968;37.490;-122.288;2023-03-05T14:36:30;22.33;;;3.73;;
29466;SDS011;60968;37.490;-122.288;2023-03-05T14:39:38;34.80;;;3.40;;
29466;SDS011;60968;37.490;-122.288;2023-03-05T14:42:52;35.53;;;3.80;;
29466;SDS011;60968;37.490;-122.288;2023-03-05T14:45:54;37.77;;;5.13;;
29466;SDS011;60968;37.490;-122.288;2023-03-05T14:48:55;27.83;;;3.70;;
29466;SDS011;60968;37.490;-122.288;2023-03-05T14:51:56;36.93;;;4.90;;
29466;SDS011;60968;37.490;-122.288;2023-03-05T14:54:57;23.00;;;3.90;;
29466;SDS011;60968;37.490;-122.288;2023-03-05T14:58:11;38.57;;;4.50;;
29466;SDS011;60968;37.490;-122.288;2023-03-05T15:01:14;20.60;;;3.10;;
29466;SDS011;60968;37.490;-122.288;2023-03-05T15:04:15;26.70;;;3.73;;
29466;SDS011;60968;37.490;-122.288;2023-03-05T15:07:26;26.30;;;3.90;;
29466;SDS011;60968;37.490;-122.288;2023-03-05T15:10:30;18.80;;;4.77;;
29466;SDS011;60968;37.490;-122.288;2023-03-05T15:13:32;31.30;;;3.33;;
29466;SDS011;60968;37.490;-122.288;2023-03-05T15:16:34;24.83;;;4.70;;
29466;SDS011;60968;37.490;-122.288;2023-03-05T15:19:35;20.60;;;3.30;;
29466;SDS011;60968;37.490;-122.288;2023-03-05T15:22:36;19.93;;;2.97;;
29466;SDS011;60968;37.490;-122.288;2023-03-05T15:25:37;15.70;;;2.60;;
29466;SDS011;60968;37.490;-122.288;2023-03-05T15:28:39;16.90;;;2.37;;
29466;SDS011;60968;37.490;-122.288;2023-03-05T15:31:41;15.87;;;2.20;;
29466;SDS011;60968;37.490;-122.288;2023-03-05T15:34:43;15.23;;;2.60;;
29466;SDS011;60968;37.490;-122.288;2023-03-05T15:37:44;16.97;;;2.63;;
29466;SDS011;60968;37.490;-122.288;2023-03-05T15:40:45;24.83;;;3.03;;
29466;SDS011;60968;37.490;-122.288;2023-03-05T15:43:45;11.97;;;2.60;;
29466;SDS011;60968;37.490;-122.288;2023-03-05T15:46:47;25.27;;;3.10;;
29466;SDS011;60968;37.490;-122.288;2023-03-05T15:49:48;20.27;;;3.13;;
29466;SDS011;60968;37.490;-122.288;2023-03-05T15:52:49;19.10;;;2.70;;
29466;SDS011;60968;37.490;-122.288;2023-03-05T15:55:51;15.47;;;2.33;;
29466;SDS011;60968;37.490;-122.288;2023-03-05T15:58:52;23.90;;;3.07;;
29466;SDS011;60968;37.490;-122.288;2023-03-05T16:01:53;19.50;;;3.20;;
29466;SDS011;60968;37.490;-122.288;2023-03-05T16:04:53;16.47;;;2.87;;
29466;SDS011;60968;37.490;-122.288;2023-03-05T16:07:54;16.67;;;2.73;;
29466;SDS011;60968;37.490;-122.288;2023-03-05T16:10:56;20.23;;;2.63;;
29466;SDS011;60968;37.490;-122.288;2023-03-05T16:13:57;15.17;;;2.10;;
29466;SDS011;60968;37.490;-122.288;2023-03-05T16:17:01;16.97;;;2.57;;
29466;SDS011;60968;37.490;-122.288;2023-03-05T16:20:03;26.80;;;3.07;;
29466;SDS011;60968;37.490;-122.288;2023-03-05T16:23:05;14.20;;;2.13;;
29466;SDS011;60968;37.490;-122.288;2023-03-05T16:26:07;11.83;;;2.30;;
29466;SDS011;60968;37.490;-122.288;2023-03-05T16:29:08;13.67;;;2.00;;
29466;SDS011;60968;37.490;-122.288;2023-03-05T16:32:10;23.10;;;3.00;;
29466;SDS011;60968;37.490;-122.288;2023-03-05T16:35:12;14.50;;;2.47;;
29466;SDS011;60968;37.490;-122.288;2023-03-05T16:38:13;15.70;;;2.63;;
29466;SDS011;60968;37.490;-122.288;2023-03-05T16:41:14;15.17;;;2.50;;
29466;SDS011;60968;37.490;-122.288;2023-03-05T16:44:16;19.03;;;2.70;;
29466;SDS011;60968;37.490;-122.288;2023-03-05T16:47:17;25.17;;;2.30;;
29466;SDS011;60968;37.490;-122.288;2023-03-05T16:50:18;17.23;;;3.33;;
29466;SDS011;60968;37.490;-122.288;2023-03-05T16:53:19;13.57;;;2.77;;
29466;SDS011;60968;37.490;-122.288;2023-03-05T16:56:20;15.40;;;2.43;;
29466;SDS011;60968;37.490;-122.288;2023-03-05T16:59:21;20.13;;;2.90;;
29466;SDS011;60968;37.490;-122.288;2023-03-05T17:02:22;15.73;;;2.13;;
29466;SDS011;60968;37.490;-122.288;2023-03-05T17:05:23;15.30;;;3.03;;
29466;SDS011;60968;37.490;-122.288;2023-03-05T17:08:25;10.20;;;2.03;;
29466;SDS011;60968;37.490;-122.288;2023-03-05T17:11:26;10.90;;;1.73;;
29466;SDS011;60968;37.490;-122.288;2023-03-05T17:14:27;15.60;;;2.00;;
29466;SDS011;60968;37.490;-122.288;2023-03-05T17:17:33;12.30;;;2.00;;
29466;SDS011;60968;37.490;-122.288;2023-03-05T17:20:33;11.27;;;2.00;;
29466;SDS011;60968;37.490;-122.288;2023-03-05T17:23:35;9.83;;;1.73;;
29466;SDS011;60968;37.490;-122.288;2023-03-05T17:26:37;8.83;;;1.37;;
29466;SDS011;60968;37.490;-122.288;2023-03-05T17:29:38;6.20;;;1.60;;
29466;SDS011;60968;37.490;-122.288;2023-03-05T17:32:41;9.80;;;1.87;;
29466;SDS011;60968;37.490;-122.288;2023-03-05T17:35:42;9.63;;;1.50;;
29466;SDS011;60968;37.490;-122.288;2023-03-05T17:38:44;7.57;;;1.30;;
29466;SDS011;60968;37.490;-122.288;2023-03-05T17:41:46;10.13;;;2.10;;
29466;SDS011;60968;37.490;-122.288;2023-03-05T17:44:47;14.97;;;2.00;;
29466;SDS011;60968;37.490;-122.288;2023-03-05T17:47:49;12.00;;;1.27;;
29466;SDS011;60968;37.490;-122.288;2023-03-05T17:50:50;7.27;;;1.70;;
29466;SDS011;60968;37.490;-122.288;2023-03-05T17:53:51;7.27;;;1.17;;
29466;SDS011;60968;37.490;-122.288;2023-03-05T17:56:55;8.33;;;1.40;;
29466;SDS011;60968;37.490;-122.288;2023-03-05T17:59:56;7.33;;;1.27;;
29466;SDS011;60968;37.490;-122.288;2023-03-05T18:02:57;8.90;;;1.93;;
29466;SDS011;60968;37.490;-122.288;2023-03-05T18:05:59;6.70;;;1.63;;
29466;SDS011;60968;37.490;-122.288;2023-03-05T18:09:00;10.93;;;1.50;;